Time;durP1;ratioP1;P1;durP2;ratioP2;P2;SDS_P1;SDS_P2;PMS_P1;PMS_P2;Temp;Humidity;BMP_temperature;BMP_pressure;BME280_temperature;BME280_humidity;BME280_pressure;Samples;Min_cycle;Max_cycle;Signal;HPM_P1;HPM_P2
2021/10/11 00:01:25;;;;;;;7.20;6.60;;;18.20;66.50;;;;;;5053036;28;20172;-76
2021/10/11 00:03:51;;;;;;;6.70;6.20;;;18.20;66.50;;;;;;5053453;28;20535;-73
2021/10/11 00:06:16;;;;;;;7.20;6.47;;;18.20;66.50;;;;;;5053892;28;20171;-75
2021/10/11 00:08:42;;;;;;;6.57;6.00;;;18.20;66.50;;;;;;5053043;28;20175;-72
2021/10/11 00:11:07;;;;;;;6.75;6.15;;;18.20;66.50;;;;;;5053468;28;20198;-73
2021/10/11 00:13:33;;;;;;;6.82;6.22;;;18.20;66.60;;;;;;5053585;28;20201;-73
2021/10/11 00:15:58;;;;;;;7.15;6.45;;;18.20;66.60;;;;;;5052493;28;20538;-73
2021/10/11 00:18:24;;;;;;;7.03;6.40;;;18.20;66.60;;;;;;5053627;28;20214;-75
2021/10/11 00:20:50;;;;;;;7.15;6.13;;;18.10;66.50;;;;;;5053211;28;20171;-73
2021/10/11 00:23:15;;;;;;;6.60;6.05;;;18.20;66.60;;;;;;5052872;28;20171;-75
2021/10/11 00:25:41;;;;;;;6.32;5.80;;;18.20;66.60;;;;;;5053207;28;20317;-75
2021/10/11 00:28:06;;;;;;;7.28;6.60;;;18.10;66.50;;;;;;5052925;28;20179;-76
2021/10/11 00:30:32;;;;;;;5.95;5.45;;;18.10;67.40;;;;;;5052792;28;20175;-76
2021/10/11 00:32:57;;;;;;;6.43;5.88;;;18.10;66.60;;;;;;5053171;28;20175;-74
2021/10/11 00:35:23;;;;;;;7.18;6.57;;;18.10;66.60;;;;;;5052357;28;20214;-77
2021/10/11 00:37:48;;;;;;;6.07;5.55;;;18.10;66.50;;;;;;5052879;28;20222;-74
2021/10/11 00:40:14;;;;;;;6.85;6.15;;;18.10;66.50;;;;;;5053109;28;20232;-73
2021/10/11 00:42:39;;;;;;;6.57;6.00;;;18.10;66.50;;;;;;5052304;28;20517;-75
2021/10/11 00:45:06;;;;;;;6.88;6.28;;;18.10;66.50;;;;;;5052721;28;20197;-73
2021/10/11 00:47:31;;;;;;;6.18;5.68;;;18.10;66.50;;;;;;5053155;28;20171;-76
2021/10/11 00:49:57;;;;;;;6.22;5.63;;;18.10;66.50;;;;;;5051856;28;20182;-74
2021/10/11 00:52:22;;;;;;;6.88;6.28;;;18.10;66.60;;;;;;5053197;28;20175;-76
2021/10/11 00:54:48;;;;;;;6.47;5.82;;;18.10;66.60;;;;;;5051646;28;20175;-75
2021/10/11 00:57:13;;;;;;;6.60;6.00;;;18.10;67.40;;;;;;5051948;28;20203;-77
2021/10/11 00:59:41;;;;;;;6.45;5.85;;;18.10;66.60;;;;;;5052855;28;20179;-75
2021/10/11 01:02:06;;;;;;;6.63;5.88;;;18.10;66.60;;;;;;5052680;28;20262;-75
2021/10/11 01:04:32;;;;;;;6.18;5.65;;;18.10;66.60;;;;;;5052283;28;20756;-76
2021/10/11 01:06:57;;;;;;;6.43;5.93;;;18.10;66.60;;;;;;5052667;28;20167;-73
2021/10/11 01:09:23;;;;;;;6.38;5.85;;;18.00;66.60;;;;;;5052854;28;20273;-72
2021/10/11 01:11:50;;;;;;;6.30;5.80;;;18.00;66.60;;;;;;5051639;28;20189;-73
2021/10/11 01:14:16;;;;;;;5.30;4.90;;;18.10;66.60;;;;;;5052579;28;20175;-74
2021/10/11 01:16:41;;;;;;;5.93;5.43;;;18.00;66.60;;;;;;5052808;28;20309;-75
2021/10/11 01:19:07;;;;;;;5.82;5.32;;;18.00;66.60;;;;;;5051626;28;20225;-73
2021/10/11 01:21:32;;;;;;;6.03;5.53;;;18.00;66.60;;;;;;5052748;28;20171;-74
2021/10/11 01:23:58;;;;;;;5.78;5.38;;;18.00;66.60;;;;;;5052115;28;20270;-75
2021/10/11 01:26:35;;;;;;;6.50;5.90;;;18.00;66.60;;;;;;5051891;28;20171;-76
2021/10/11 01:29:00;;;;;;;6.10;5.60;;;18.00;66.70;;;;;;5051301;28;20248;-74
2021/10/11 01:31:26;;;;;;;5.93;5.40;;;18.10;66.70;;;;;;5052445;28;20626;-76
2021/10/11 01:33:51;;;;;;;6.20;5.60;;;18.00;66.60;;;;;;5051514;28;20187;-73
2021/10/11 01:36:17;;;;;;;6.18;5.57;;;18.00;66.60;;;;;;5052505;28;20182;-74
2021/10/11 01:38:42;;;;;;;5.88;5.38;;;18.00;66.60;;;;;;5051623;28;20214;-72
2021/10/11 01:41:08;;;;;;;5.38;4.97;;;18.00;66.70;;;;;;5051979;28;20166;-76
2021/10/11 01:43:33;;;;;;;6.10;5.60;;;18.00;66.70;;;;;;5052353;28;20660;-73
2021/10/11 01:45:59;;;;;;;5.63;5.13;;;18.00;66.70;;;;;;5052095;28;20195;-76
2021/10/11 01:48:24;;;;;;;6.05;5.55;;;18.00;66.60;;;;;;5056444;28;20167;-73
2021/10/11 01:50:49;;;;;;;5.60;5.10;;;18.00;66.70;;;;;;5055948;28;20225;-73
2021/10/11 01:53:15;;;;;;;5.43;4.93;;;18.00;66.70;;;;;;5055437;28;20530;-74
2021/10/11 01:55:41;;;;;;;4.95;4.55;;;18.00;66.70;;;;;;5056266;28;20179;-76
2021/10/11 01:58:06;;;;;;;5.20;4.80;;;18.00;66.80;;;;;;5055919;28;20207;-75
2021/10/11 02:00:32;;;;;;;6.15;5.55;;;18.00;66.70;;;;;;5055307;28;20641;-76
2021/10/11 02:02:57;;;;;;;4.75;4.40;;;18.00;66.70;;;;;;5055714;28;20224;-74
2021/10/11 02:05:23;;;;;;;5.60;5.10;;;18.00;66.80;;;;;;5056088;28;20246;-75
2021/10/11 02:07:48;;;;;;;5.55;5.10;;;18.00;66.70;;;;;;5055016;28;20579;-72
2021/10/11 02:10:14;;;;;;;5.10;4.70;;;18.00;66.70;;;;;;5055915;28;20725;-73
2021/10/11 02:12:39;;;;;;;5.05;4.65;;;18.00;66.70;;;;;;5055875;28;20528;-73
2021/10/11 02:15:05;;;;;;;5.13;4.72;;;18.00;66.70;;;;;;5054944;28;20169;-74
2021/10/11 02:17:31;;;;;;;5.15;4.75;;;17.90;66.70;;;;;;5055842;28;20214;-74
2021/10/11 02:19:56;;;;;;;5.90;5.40;;;17.90;66.70;;;;;;5055595;28;20171;-72
2021/10/11 02:22:22;;;;;;;5.53;5.03;;;17.90;66.70;;;;;;5055086;28;20695;-76
2021/10/11 02:24:47;;;;;;;5.60;5.10;;;18.00;66.80;;;;;;5055102;28;20231;-76
2021/10/11 02:27:13;;;;;;;5.10;4.70;;;17.90;66.80;;;;;;5055807;28;20175;-73
2021/10/11 02:29:38;;;;;;;4.47;4.18;;;17.90;66.70;;;;;;5054846;28;20178;-76
2021/10/11 02:32:04;;;;;;;5.05;4.65;;;18.00;66.80;;;;;;5055289;28;20171;-76
2021/10/11 02:34:30;;;;;;;5.28;4.88;;;18.00;66.80;;;;;;5055480;28;20183;-75
2021/10/11 02:36:55;;;;;;;5.38;4.97;;;17.90;66.80;;;;;;5054473;28;20213;-73
2021/10/11 02:39:21;;;;;;;5.00;4.65;;;17.90;66.80;;;;;;5055269;28;20210;-76
2021/10/11 02:41:46;;;;;;;5.25;4.75;;;17.90;66.80;;;;;;5055276;28;20626;-73
2021/10/11 02:44:12;;;;;;;4.43;4.05;;;17.90;66.80;;;;;;5054621;28;20179;-76
2021/10/11 02:46:37;;;;;;;5.05;4.60;;;17.90;66.80;;;;;;5055205;28;20175;-75
2021/10/11 02:49:03;;;;;;;4.97;4.57;;;17.90;66.80;;;;;;5054104;28;20715;-73
2021/10/11 02:51:28;;;;;;;4.72;4.32;;;17.90;66.80;;;;;;5055293;28;20175;-75
2021/10/11 02:53:54;;;;;;;4.95;4.55;;;17.90;66.80;;;;;;5054741;28;20179;-74
2021/10/11 02:56:20;;;;;;;4.50;4.10;;;17.90;66.80;;;;;;5054208;28;20171;-76
2021/10/11 02:58:46;;;;;;;4.70;4.30;;;17.90;66.80;;;;;;5054989;28;20233;-76
2021/10/11 03:01:11;;;;;;;4.68;4.28;;;17.90;66.80;;;;;;5054785;28;20652;-75
2021/10/11 03:03:37;;;;;;;4.68;4.28;;;17.90;66.80;;;;;;5054336;28;20175;-76
2021/10/11 03:06:03;;;;;;;4.57;4.20;;;17.90;66.80;;;;;;5054591;28;20229;-73
2021/10/11 03:08:28;;;;;;;4.43;4.13;;;17.90;66.80;;;;;;5054925;28;20575;-74
2021/10/11 03:10:54;;;;;;;4.70;4.30;;;17.90;66.80;;;;;;5054002;28;20166;-73
2021/10/11 03:13:19;;;;;;;4.88;4.47;;;17.80;66.80;;;;;;5054928;28;20179;-74
2021/10/11 03:15:45;;;;;;;4.45;4.15;;;17.80;66.70;;;;;;5054755;28;20167;-75
2021/10/11 03:18:10;;;;;;;4.55;4.18;;;17.90;66.90;;;;;;5053521;28;20218;-72
2021/10/11 03:20:36;;;;;;;4.65;4.25;;;17.80;66.70;;;;;;5054589;28;20673;-75
2021/10/11 03:23:01;;;;;;;4.30;4.00;;;17.80;66.70;;;;;;5054299;28;20178;-74
2021/10/11 03:25:27;;;;;;;4.90;4.50;;;17.80;66.80;;;;;;5053763;28;20796;-73
2021/10/11 03:27:52;;;;;;;4.10;3.80;;;17.80;67.60;;;;;;5054285;28;20179;-76
2021/10/11 03:30:18;;;;;;;4.85;4.45;;;17.80;66.70;;;;;;5054510;28;20198;-75
2021/10/11 03:32:43;;;;;;;4.10;3.80;;;17.80;66.80;;;;;;5053880;28;20262;-76
2021/10/11 03:35:09;;;;;;;3.90;3.60;;;17.80;66.80;;;;;;5054039;28;20167;-73
2021/10/11 03:37:34;;;;;;;3.95;3.65;;;17.80;66.70;;;;;;5054093;28;20677;-73
2021/10/11 03:40:00;;;;;;;4.10;3.80;;;17.80;66.80;;;;;;5053221;28;20198;-74
2021/10/11 03:42:25;;;;;;;4.78;4.38;;;17.80;66.80;;;;;;5054329;28;20195;-72
2021/10/11 03:44:51;;;;;;;4.40;4.00;;;17.80;66.80;;;;;;5054015;28;20266;-76
2021/10/11 03:47:16;;;;;;;4.07;3.78;;;17.80;66.80;;;;;;5053399;28;20177;-73
2021/10/11 03:49:42;;;;;;;4.45;4.05;;;17.80;66.80;;;;;;5054015;28;20175;-73
2021/10/11 03:52:08;;;;;;;4.28;3.97;;;17.80;66.80;;;;;;5053402;28;20171;-73
2021/10/11 03:54:33;;;;;;;4.35;4.03;;;17.80;67.80;;;;;;5053911;28;20186;-75
2021/10/11 03:56:59;;;;;;;3.58;3.33;;;17.80;66.80;;;;;;5053503;28;20182;-75
2021/10/11 03:59:24;;;;;;;4.40;4.00;;;17.80;67.00;;;;;;5053238;28;20171;-78
2021/10/11 04:01:49;;;;;;;4.28;3.88;;;17.80;66.80;;;;;;5053405;28;20167;-75
2021/10/11 04:04:16;;;;;;;3.83;3.50;;;17.80;66.80;;;;;;5053774;28;20585;-76
2021/10/11 04:06:41;;;;;;;3.38;3.15;;;17.80;66.90;;;;;;5052867;28;20210;-73
2021/10/11 04:09:07;;;;;;;4.18;3.78;;;17.80;67.00;;;;;;5052903;28;20687;-74
2021/10/11 04:11:33;;;;;;;3.80;3.50;;;17.70;66.80;;;;;;5053692;28;20179;-73
2021/10/11 04:13:58;;;;;;;3.42;3.22;;;17.80;66.80;;;;;;5052580;28;20178;-74
2021/10/11 04:16:24;;;;;;;3.67;3.38;;;17.70;66.90;;;;;;5053544;28;20175;-74
2021/10/11 04:18:50;;;;;;;3.97;3.63;;;17.80;66.90;;;;;;5052879;28;20207;-74
2021/10/11 04:21:15;;;;;;;4.13;3.83;;;17.70;66.80;;;;;;5052686;28;20174;-76
2021/10/11 04:23:41;;;;;;;3.88;3.58;;;17.70;66.80;;;;;;5053571;28;20552;-76
2021/10/11 04:26:06;;;;;;;3.90;3.60;;;17.70;67.00;;;;;;5052810;28;20228;-73
2021/10/11 04:28:32;;;;;;;3.80;3.50;;;17.70;66.90;;;;;;5052784;28;20270;-76
2021/10/11 04:30:57;;;;;;;3.85;3.55;;;17.70;66.90;;;;;;5053076;28;20262;-76
2021/10/11 04:33:24;;;;;;;3.70;3.40;;;17.70;66.90;;;;;;5053396;28;20175;-76
2021/10/11 04:35:49;;;;;;;4.22;3.90;;;17.70;67.70;;;;;;5052187;28;20217;-74
2021/10/11 04:38:15;;;;;;;3.65;3.35;;;17.70;67.00;;;;;;5053212;28;20207;-76
2021/10/11 04:40:40;;;;;;;3.47;3.22;;;17.70;67.00;;;;;;5053235;28;20171;-74
2021/10/11 04:43:06;;;;;;;3.30;3.10;;;17.70;66.90;;;;;;5052210;28;20253;-76
2021/10/11 04:45:33;;;;;;;3.58;3.28;;;17.70;67.00;;;;;;5053123;28;20211;-75
2021/10/11 04:48:00;;;;;;;3.95;3.65;;;17.70;67.00;;;;;;5052701;28;20520;-74
2021/10/11 04:50:27;;;;;;;3.50;3.20;;;17.70;66.90;;;;;;5052214;28;20175;-75
2021/10/11 04:52:53;;;;;;;3.72;3.28;;;17.70;66.90;;;;;;5052795;28;20187;-75
2021/10/11 04:55:19;;;;;;;3.80;3.50;;;17.70;67.00;;;;;;5053021;28;20221;-73
2021/10/11 04:57:44;;;;;;;3.70;3.40;;;17.70;67.00;;;;;;5052000;28;20293;-76
2021/10/11 05:00:12;;;;;;;3.67;3.38;;;17.70;67.00;;;;;;5052624;28;20657;-76
2021/10/11 05:02:37;;;;;;;3.92;3.10;;;17.70;67.00;;;;;;5052265;28;20175;-75
2021/10/11 05:05:03;;;;;;;3.60;3.30;;;17.70;67.00;;;;;;5052513;28;20178;-75
2021/10/11 05:07:29;;;;;;;3.08;2.88;;;17.70;67.00;;;;;;5052921;28;20179;-76
2021/10/11 05:09:54;;;;;;;4.47;3.38;;;17.60;66.90;;;;;;5051726;28;20637;-73
2021/10/11 05:12:20;;;;;;;3.47;3.17;;;17.70;67.00;;;;;;5052842;28;20167;-74
2021/10/11 05:14:45;;;;;;;3.55;3.25;;;17.60;66.90;;;;;;5052762;28;20182;-74
2021/10/11 05:17:11;;;;;;;2.90;2.70;;;17.60;66.90;;;;;;5051577;28;20202;-75
2021/10/11 05:19:36;;;;;;;3.65;3.28;;;17.60;66.90;;;;;;5052532;28;20646;-75
2021/10/11 05:22:02;;;;;;;3.70;3.40;;;17.60;66.90;;;;;;5055014;28;20262;-76
2021/10/11 05:24:29;;;;;;;3.20;2.90;;;17.60;66.90;;;;;;5056230;28;20223;-75
2021/10/11 05:26:55;;;;;;;3.35;3.10;;;17.60;66.90;;;;;;5056504;28;20175;-72
2021/10/11 05:29:21;;;;;;;3.20;2.90;;;17.60;66.90;;;;;;5056871;28;20668;-76
2021/10/11 05:31:46;;;;;;;3.17;2.88;;;17.60;66.90;;;;;;5056032;28;20579;-76
2021/10/11 05:34:12;;;;;;;3.10;2.90;;;17.60;66.90;;;;;;5056309;28;20186;-76
2021/10/11 05:36:38;;;;;;;2.90;2.70;;;17.60;66.90;;;;;;5056794;28;20217;-73
2021/10/11 05:39:03;;;;;;;3.67;3.10;;;17.60;66.90;;;;;;5054451;28;20244;-76
2021/10/11 05:41:29;;;;;;;3.83;3.53;;;17.60;66.90;;;;;;5056589;28;20166;-73
2021/10/11 05:43:54;;;;;;;3.25;2.95;;;17.60;66.90;;;;;;5056136;28;20190;-75
2021/10/11 05:46:19;;;;;;;3.15;2.95;;;17.60;66.90;;;;;;5055701;28;20175;-73
2021/10/11 05:48:45;;;;;;;3.10;2.90;;;17.60;67.00;;;;;;5056415;28;20178;-73
2021/10/11 05:51:10;;;;;;;3.05;2.85;;;17.60;66.90;;;;;;5055946;28;20216;-75
2021/10/11 05:53:36;;;;;;;2.53;2.33;;;17.60;66.90;;;;;;5055581;28;20570;-75
2021/10/11 05:56:01;;;;;;;2.88;2.67;;;17.60;66.90;;;;;;5055948;28;20499;-75
2021/10/11 05:58:27;;;;;;;2.72;2.53;;;17.60;67.00;;;;;;5056173;28;20217;-77
2021/10/11 06:00:52;;;;;;;3.35;3.08;;;17.60;66.90;;;;;;5055053;28;20175;-74
2021/10/11 06:03:18;;;;;;;2.88;2.67;;;17.60;66.90;;;;;;5055928;28;20638;-76
2021/10/11 06:05:43;;;;;;;3.10;2.90;;;17.60;67.00;;;;;;5056127;28;20200;-73
2021/10/11 06:08:09;;;;;;;3.25;2.83;;;17.60;66.90;;;;;;5055202;28;20182;-74
2021/10/11 06:10:35;;;;;;;3.22;2.92;;;17.60;66.90;;;;;;5055805;28;20182;-73
2021/10/11 06:13:01;;;;;;;2.78;2.47;;;17.60;66.90;;;;;;5055089;28;20545;-74
2021/10/11 06:15:27;;;;;;;3.28;3.03;;;17.60;66.90;;;;;;5055863;28;20171;-74
2021/10/11 06:17:52;;;;;;;2.92;2.72;;;17.60;66.80;;;;;;5063875;28;20213;-74
2021/10/11 06:20:18;;;;;;;3.20;2.90;;;17.60;66.80;;;;;;5059385;28;20171;-77
2021/10/11 06:22:43;;;;;;;2.97;2.70;;;17.60;66.90;;;;;;5075650;28;20272;-76
2021/10/11 06:25:09;;;;;;;2.55;2.35;;;17.60;66.90;;;;;;5066081;28;20619;-76
2021/10/11 06:27:37;;;;;;;2.55;2.35;;;17.60;66.90;;;;;;5054189;28;20258;-73
2021/10/11 06:30:02;;;;;;;12.77;3.78;;;17.60;66.90;;;;;;5036436;28;20191;-66
2021/10/11 06:32:28;;;;;;;4.70;2.70;;;17.60;67.00;;;;;;5034914;28;20191;-66
2021/10/11 06:34:53;;;;;;;4.65;2.92;;;17.60;67.10;;;;;;5034949;28;20199;-74
2021/10/11 06:37:19;;;;;;;2.83;2.63;;;17.60;67.00;;;;;;5035645;28;20183;-76
2021/10/11 06:39:44;;;;;;;3.42;2.58;;;17.60;66.90;;;;;;5035541;28;20210;-67
2021/10/11 06:42:10;;;;;;;6.70;3.28;;;17.60;67.00;;;;;;5034388;28;20256;-64
2021/10/11 06:44:35;;;;;;;5.53;2.97;;;17.60;67.20;;;;;;5035464;28;20230;-67
2021/10/11 06:47:01;;;;;;;6.90;3.28;;;17.70;67.60;;;;;;5035086;28;20199;-67
2021/10/11 06:49:26;;;;;;;5.13;3.22;;;17.70;67.40;;;;;;5034610;28;20175;-67
2021/10/11 06:51:52;;;;;;;3.50;2.65;;;17.70;67.50;;;;;;5034891;28;20187;-67
2021/10/11 06:54:17;;;;;;;5.28;2.65;;;17.70;67.60;;;;;;5035303;28;20539;-66
2021/10/11 06:56:43;;;;;;;4.60;2.58;;;17.60;67.50;;;;;;5034379;28;20638;-65
2021/10/11 06:59:08;;;;;;;4.97;2.65;;;17.60;67.50;;;;;;5034933;28;20254;-66
2021/10/11 07:01:34;;;;;;;5.32;2.75;;;17.60;67.50;;;;;;5034889;28;20172;-66
2021/10/11 07:04:00;;;;;;;5.05;2.78;;;17.60;67.50;;;;;;5033970;28;20542;-66
2021/10/11 07:06:26;;;;;;;6.28;2.83;;;17.60;67.50;;;;;;5035077;28;20187;-66
2021/10/11 07:08:52;;;;;;;3.78;2.60;;;17.60;67.50;;;;;;5034777;28;20250;-65
2021/10/11 07:11:17;;;;;;;3.85;2.80;;;17.60;67.50;;;;;;5034386;28;20168;-65
2021/10/11 07:13:43;;;;;;;4.50;2.60;;;17.60;67.50;;;;;;5035040;28;20179;-65
2021/10/11 07:16:09;;;;;;;5.28;3.10;;;17.50;67.50;;;;;;5033802;28;20662;-66
2021/10/11 07:18:34;;;;;;;6.30;3.00;;;17.60;67.50;;;;;;5034735;28;20620;-67
2021/10/11 07:21:01;;;;;;;7.10;2.92;;;17.60;67.60;;;;;;5034591;28;20531;-67
2021/10/11 07:23:29;;;;;;;3.55;2.42;;;17.60;67.50;;;;;;5033928;28;20959;-66
2021/10/11 07:25:54;;;;;;;4.45;2.50;;;17.60;67.50;;;;;;5034177;28;20227;-65
2021/10/11 07:28:20;;;;;;;5.60;2.60;;;17.60;67.60;;;;;;5034730;28;20183;-65
2021/10/11 07:30:45;;;;;;;4.95;2.60;;;17.60;67.60;;;;;;5033971;28;20164;-65
2021/10/11 07:33:11;;;;;;;6.47;2.65;;;17.60;67.60;;;;;;5034157;28;20176;-65
2021/10/11 07:35:36;;;;;;;6.15;2.55;;;17.60;67.60;;;;;;5034675;28;20221;-66
2021/10/11 07:38:02;;;;;;;4.40;2.63;;;17.60;67.70;;;;;;5033382;28;20215;-66
2021/10/11 07:40:27;;;;;;;4.60;2.50;;;17.60;67.60;;;;;;5034492;28;20509;-66
2021/10/11 07:42:53;;;;;;;3.00;2.50;;;17.60;67.70;;;;;;5034042;28;20186;-66
2021/10/11 07:45:18;;;;;;;4.43;2.78;;;17.60;67.70;;;;;;5032896;28;20167;-66
2021/10/11 07:47:44;;;;;;;4.15;2.53;;;17.60;67.70;;;;;;5034311;28;20259;-66
2021/10/11 07:50:11;;;;;;;5.25;2.95;;;17.60;67.70;;;;;;5033978;28;20180;-66
2021/10/11 07:52:36;;;;;;;3.22;2.30;;;17.60;67.80;;;;;;5033564;28;20183;-66
2021/10/11 07:55:02;;;;;;;4.15;2.70;;;17.60;67.80;;;;;;5033815;28;20661;-66
2021/10/11 07:57:32;;;;;;;3.20;2.50;;;17.60;67.80;;;;;;5034002;28;20253;-66
2021/10/11 07:59:58;;;;;;;4.35;2.40;;;17.60;67.80;;;;;;5032839;28;20547;-66
2021/10/11 08:02:23;;;;;;;4.05;2.47;;;17.60;67.80;;;;;;5033867;28;20635;-67
2021/10/11 08:04:49;;;;;;;3.97;2.42;;;17.60;67.70;;;;;;5033481;28;20175;-68
2021/10/11 08:07:14;;;;;;;4.38;2.83;;;17.60;67.80;;;;;;5033299;28;20226;-65
2021/10/11 08:09:40;;;;;;;3.33;2.47;;;17.60;67.80;;;;;;5033908;28;20175;-65
2021/10/11 08:12:08;;;;;;;8.35;2.60;;;17.60;67.80;;;;;;5033544;28;20178;-66
2021/10/11 08:14:34;;;;;;;2.67;2.45;;;17.60;67.90;;;;;;5032897;28;20180;-66
2021/10/11 08:16:59;;;;;;;2.67;2.30;;;17.70;68.10;;;;;;5033532;28;20175;-66
2021/10/11 08:19:25;;;;;;;2.88;2.50;;;17.70;68.80;;;;;;5032990;28;20216;-67
2021/10/11 08:21:50;;;;;;;3.08;2.75;;;17.70;68.00;;;;;;5033314;28;20178;-66
2021/10/11 08:24:16;;;;;;;4.50;2.40;;;17.70;67.90;;;;;;5033477;28;20224;-66
2021/10/11 08:26:41;;;;;;;2.92;2.28;;;17.70;67.70;;;;;;5032936;28;20259;-66
2021/10/11 08:29:07;;;;;;;4.20;2.70;;;17.70;67.70;;;;;;5033113;28;20582;-65
2021/10/11 08:31:32;;;;;;;3.65;2.60;;;17.80;67.60;;;;;;5033317;28;20706;-66
2021/10/11 08:33:58;;;;;;;3.03;2.35;;;17.80;67.60;;;;;;5032386;28;20189;-66
2021/10/11 08:36:24;;;;;;;3.35;2.13;;;17.80;67.60;;;;;;5033425;28;20176;-67
2021/10/11 08:38:49;;;;;;;2.97;2.40;;;17.80;67.70;;;;;;5032816;28;20207;-67
2021/10/11 08:41:15;;;;;;;4.10;2.42;;;17.80;67.70;;;;;;5032493;28;20570;-66
2021/10/11 08:43:41;;;;;;;2.58;2.08;;;17.80;67.80;;;;;;5033308;28;20179;-67
2021/10/11 08:46:07;;;;;;;2.65;2.42;;;17.80;67.70;;;;;;5032784;28;20526;-66
2021/10/11 08:48:33;;;;;;;3.60;2.20;;;17.80;67.80;;;;;;5032525;28;20179;-67
2021/10/11 08:50:59;;;;;;;4.05;2.28;;;17.70;67.70;;;;;;5032991;28;20226;-66
2021/10/11 08:53:27;;;;;;;2.90;2.42;;;17.80;67.70;;;;;;5033172;28;20180;-66
2021/10/11 08:55:53;;;;;;;2.25;1.98;;;17.80;67.80;;;;;;5031790;28;20646;-67
2021/10/11 08:58:18;;;;;;;2.38;2.10;;;17.80;67.70;;;;;;5032836;28;20200;-66
2021/10/11 09:00:44;;;;;;;3.20;2.50;;;17.80;67.70;;;;;;5032915;28;20172;-66
2021/10/11 09:03:10;;;;;;;3.83;2.15;;;17.80;67.70;;;;;;5032107;28;20186;-67
2021/10/11 09:05:40;;;;;;;2.65;2.13;;;17.80;67.70;;;;;;5033037;28;20222;-66
2021/10/11 09:08:11;;;;;;;3.42;2.25;;;17.80;67.80;;;;;;5032624;28;20233;-66
2021/10/11 09:10:57;;;;;;;3.10;2.30;;;17.80;67.80;;;;;;5032143;28;20180;-65
2021/10/11 09:13:45;;;;;;;3.00;2.20;;;17.80;67.90;;;;;;5032831;28;20180;-66
2021/10/11 09:16:13;;;;;;;3.10;2.05;;;17.80;67.90;;;;;;5032010;28;20174;-67
2021/10/11 09:18:41;;;;;;;3.17;2.17;;;17.80;67.80;;;;;;5032825;28;20211;-67
2021/10/11 09:21:07;;;;;;;2.63;2.08;;;17.80;67.80;;;;;;5032479;28;20651;-67
2021/10/11 09:23:32;;;;;;;2.97;2.17;;;17.80;67.80;;;;;;5031928;28;20207;-66
2021/10/11 09:25:59;;;;;;;3.28;2.38;;;17.80;67.70;;;;;;5032188;28;20698;-65
2021/10/11 09:28:27;;;;;;;4.75;2.08;;;17.80;67.70;;;;;;5032797;28;20245;-65
2021/10/11 09:30:54;;;;;;;3.10;2.30;;;17.80;67.70;;;;;;5031655;28;20178;-66
2021/10/11 09:33:21;;;;;;;2.97;2.25;;;17.90;67.80;;;;;;5032654;28;20179;-66
2021/10/11 09:35:47;;;;;;;3.42;2.10;;;17.80;67.70;;;;;;5032658;28;20172;-66
2021/10/11 09:38:20;;;;;;;3.80;2.47;;;17.80;67.70;;;;;;5032070;28;20226;-67
2021/10/11 09:40:46;;;;;;;2.75;2.30;;;17.80;67.70;;;;;;5032521;28;20184;-67
2021/10/11 09:43:13;;;;;;;2.58;1.90;;;17.80;67.70;;;;;;5032274;28;20176;-68
2021/10/11 09:45:39;;;;;;;2.58;1.95;;;17.90;67.80;;;;;;5031975;28;20186;-67
2021/10/11 09:48:06;;;;;;;2.63;2.15;;;17.90;67.80;;;;;;5031143;28;20168;-68
2021/10/11 09:50:31;;;;;;;2.28;2.03;;;17.90;67.80;;;;;;5032429;28;20230;-67
2021/10/11 09:52:57;;;;;;;4.05;2.17;;;17.90;67.80;;;;;;5030486;28;20180;-67
2021/10/11 09:55:22;;;;;;;3.78;2.30;;;17.90;67.80;;;;;;5031158;28;20234;-67
2021/10/11 09:57:48;;;;;;;2.88;2.28;;;17.80;67.70;;;;;;5031991;28;20208;-67
2021/10/11 10:00:14;;;;;;;3.55;2.05;;;17.80;67.80;;;;;;5031694;28;20164;-67
2021/10/11 10:02:41;;;;;;;3.47;2.10;;;17.80;67.80;;;;;;5032257;28;20183;-67
2021/10/11 10:05:14;;;;;;;4.10;2.17;;;17.80;67.80;;;;;;5031365;28;20180;-66
2021/10/11 10:07:46;;;;;;;2.53;2.30;;;17.80;67.80;;;;;;5033079;28;20642;-73
2021/10/11 10:10:12;;;;;;;2.80;1.85;;;17.90;67.80;;;;;;5034851;28;20219;-72
2021/10/11 10:12:48;;;;;;;2.83;2.00;;;17.90;67.70;;;;;;5035522;28;20654;-73
2021/10/11 10:15:36;;;;;;;3.15;2.30;;;17.90;67.60;;;;;;5036028;28;20175;-74
2021/10/11 10:18:09;;;;;;;3.00;1.92;;;18.00;67.60;;;;;;5034760;28;20238;-74
2021/10/11 10:20:36;;;;;;;2.28;1.95;;;18.00;67.50;;;;;;5043205;28;20167;-74
2021/10/11 10:23:02;;;;;;;3.05;1.90;;;18.00;67.60;;;;;;5054260;28;20179;-75
2021/10/11 10:25:27;;;;;;;3.33;1.77;;;18.00;67.50;;;;;;5054216;28;20234;-72
2021/10/11 10:28:03;;;;;;;2.45;1.38;;;18.00;67.40;;;;;;5053444;28;20850;-72
2021/10/11 10:30:29;;;;;;;3.03;1.88;;;18.10;67.60;;;;;;5053030;28;20178;-73
2021/10/11 10:33:02;;;;;;;2.35;1.83;;;18.10;67.50;;;;;;5053678;28;20538;-73
2021/10/11 10:35:34;;;;;;;2.13;1.90;;;18.10;67.50;;;;;;5054723;28;20175;-79
2021/10/11 10:37:59;;;;;;;4.35;2.10;;;18.20;67.40;;;;;;5054902;28;20203;-72
2021/10/11 10:40:30;;;;;;;2.95;1.77;;;18.20;67.40;;;;;;5054076;28;20174;-70
2021/10/11 10:43:06;;;;;;;4.63;2.42;;;18.30;67.30;;;;;;5055226;28;20182;-72
2021/10/11 10:45:33;;;;;;;3.15;1.92;;;18.30;67.20;;;;;;5055065;28;20194;-69
2021/10/11 10:47:58;;;;;;;2.78;1.70;;;18.30;67.30;;;;;;5054158;28;20190;-68
2021/10/11 10:50:24;;;;;;;4.82;2.00;;;18.20;67.30;;;;;;5054739;28;20175;-65
2021/10/11 10:52:54;;;;;;;3.92;1.80;;;18.30;67.30;;;;;;5054829;28;20221;-66
2021/10/11 10:55:19;;;;;;;5.72;2.00;;;18.40;67.10;;;;;;5053410;28;20262;-65
2021/10/11 10:57:45;;;;;;;4.75;1.90;;;18.40;67.00;;;;;;5054857;28;20338;-65
2021/10/11 11:00:13;;;;;;;3.53;1.70;;;18.50;67.00;;;;;;5054571;28;20179;-66
2021/10/11 11:02:46;;;;;;;2.45;1.92;;;18.50;66.90;;;;;;5054263;28;20172;-66
2021/10/11 11:05:12;;;;;;;3.58;1.85;;;18.60;66.80;;;;;;5054640;28;20251;-67
2021/10/11 11:07:38;;;;;;;4.80;2.45;;;18.60;66.80;;;;;;5054661;28;20638;-66
2021/10/11 11:10:11;;;;;;;3.03;1.85;;;18.50;66.90;;;;;;5054065;28;20183;-65
2021/10/11 11:12:37;;;;;;;3.67;1.90;;;18.50;67.10;;;;;;5055032;28;20181;-66
2021/10/11 11:15:27;;;;;;;3.17;2.20;;;18.50;67.20;;;;;;5054519;28;20662;-66
2021/10/11 11:17:52;;;;;;;3.85;2.13;;;18.50;67.20;;;;;;5051247;28;20219;-67
2021/10/11 11:20:24;;;;;;;2.55;1.70;;;18.60;67.10;;;;;;5054565;28;20233;-67
2021/10/11 11:22:51;;;;;;;3.78;1.73;;;18.70;67.00;;;;;;5053851;28;20183;-65
2021/10/11 11:25:23;;;;;;;2.85;1.80;;;18.80;66.90;;;;;;5054330;28;20693;-65
2021/10/11 11:27:53;;;;;;;4.40;1.70;;;18.80;66.80;;;;;;5053040;28;20187;-63
2021/10/11 11:30:19;;;;;;;3.83;1.90;;;18.80;66.80;;;;;;5053675;28;20521;-63
2021/10/11 11:32:51;;;;;;;3.30;1.58;;;18.80;66.70;;;;;;5054297;28;20205;-63
2021/10/11 11:35:24;;;;;;;3.15;1.70;;;18.80;66.80;;;;;;5054642;28;20175;-63
2021/10/11 11:37:54;;;;;;;3.85;1.83;;;18.80;66.70;;;;;;5053424;28;20211;-64
2021/10/11 11:40:20;;;;;;;1.50;1.40;;;18.80;66.70;;;;;;5054316;28;20289;-64
2021/10/11 11:42:46;;;;;;;3.75;1.63;;;18.70;66.80;;;;;;5054112;28;20183;-66
2021/10/11 11:45:12;;;;;;;4.65;1.75;;;18.60;67.00;;;;;;5053233;28;20175;-77
2021/10/11 11:47:37;;;;;;;2.70;1.40;;;18.60;67.20;;;;;;5054347;28;20536;-76
2021/10/11 11:50:17;;;;;;;3.58;1.40;;;18.50;67.30;;;;;;5054432;28;20258;-75
2021/10/11 11:52:42;;;;;;;4.18;1.80;;;18.50;67.40;;;;;;5053449;28;20668;-75
2021/10/11 11:55:09;;;;;;;4.10;2.10;;;18.50;67.50;;;;;;5053958;28;20180;-74
2021/10/11 11:57:42;;;;;;;3.03;1.90;;;18.50;67.50;;;;;;5052935;28;20175;-75
2021/10/11 12:00:08;;;;;;;3.38;1.75;;;18.50;67.50;;;;;;5053583;28;20625;-75
2021/10/11 12:02:36;;;;;;;2.65;1.80;;;18.60;67.50;;;;;;5052899;28;20207;-77
2021/10/11 12:05:02;;;;;;;3.55;1.90;;;18.50;67.40;;;;;;5053038;28;20186;-77
2021/10/11 12:07:28;;;;;;;2.10;1.67;;;18.50;67.40;;;;;;5052692;28;20175;-74
2021/10/11 12:09:53;;;;;;;2.75;1.73;;;18.50;67.30;;;;;;5052430;28;20175;-75
2021/10/11 12:12:19;;;;;;;2.42;1.33;;;18.50;67.30;;;;;;5051738;28;20545;-74
2021/10/11 12:14:48;;;;;;;1.63;1.40;;;18.50;67.30;;;;;;5053629;28;20174;-75
2021/10/11 12:17:14;;;;;;;2.90;1.67;;;18.60;67.30;;;;;;5053752;28;20202;-77
2021/10/11 12:19:39;;;;;;;3.53;1.50;;;18.50;67.20;;;;;;5052848;28;20246;-77
2021/10/11 12:22:05;;;;;;;2.90;1.60;;;18.60;67.20;;;;;;5053436;28;20179;-75
2021/10/11 12:24:35;;;;;;;2.75;1.80;;;18.50;67.20;;;;;;5053281;28;20302;-74
2021/10/11 12:27:04;;;;;;;2.92;1.48;;;18.50;67.40;;;;;;5052631;28;20179;-73
2021/10/11 12:29:31;;;;;;;1.75;1.40;;;18.40;67.40;;;;;;5053134;28;20258;-73
2021/10/11 12:32:08;;;;;;;3.30;1.90;;;18.40;68.20;;;;;;5053128;28;20179;-74
2021/10/11 12:34:45;;;;;;;1.30;1.20;;;18.40;67.50;;;;;;5052586;28;20706;-76
2021/10/11 12:37:12;;;;;;;4.90;1.50;;;18.40;67.40;;;;;;5053033;28;20185;-75
2021/10/11 12:39:39;;;;;;;2.83;1.83;;;18.40;67.40;;;;;;5053084;28;20226;-76
2021/10/11 12:42:13;;;;;;;3.08;1.38;;;18.40;67.40;;;;;;5052744;28;20179;-75
2021/10/11 12:44:46;;;;;;;1.63;1.40;;;18.40;67.30;;;;;;5053337;28;20193;-77